createdAt,value
2018-05-18T00:01:13.404Z,88.67
2018-05-18T00:03:40.921Z,103.80
2018-05-18T00:06:08.359Z,103.73
2018-05-18T00:08:35.856Z,103.07
2018-05-18T00:11:03.188Z,97.27
2018-05-18T00:13:30.694Z,104.90
2018-05-18T00:15:58.151Z,102.23
2018-05-18T00:18:25.447Z,92.77
2018-05-18T00:20:52.812Z,94.33
2018-05-18T00:23:20.093Z,92.23
2018-05-18T00:25:47.411Z,80.87
2018-05-18T00:28:14.844Z,85.97
2018-05-18T00:30:42.626Z,82.20
2018-05-18T00:33:10.350Z,86.80
2018-05-18T00:35:37.800Z,87.03
2018-05-18T00:38:05.113Z,83.97
2018-05-18T00:40:32.651Z,92.43
2018-05-18T00:43:00.112Z,85.80
2018-05-18T00:45:27.406Z,81.07
2018-05-18T00:47:54.752Z,83.83
2018-05-18T00:50:22.048Z,85.07
2018-05-18T00:52:49.342Z,84.90
2018-05-18T00:55:22.461Z,90.57
2018-05-18T00:57:49.764Z,75.97
2018-05-18T01:00:17.047Z,78.13
2018-05-18T01:02:44.394Z,74.47
2018-05-18T01:05:11.913Z,94.47
2018-05-18T01:07:39.362Z,84.37
2018-05-18T01:10:06.777Z,83.13
2018-05-18T01:12:34.076Z,76.10
2018-05-18T01:15:01.467Z,98.00
2018-05-18T01:17:28.869Z,75.37
2018-05-18T01:19:56.297Z,80.97
2018-05-18T01:22:23.594Z,81.60
2018-05-18T01:24:50.959Z,78.97
2018-05-18T01:27:18.256Z,88.53
2018-05-18T01:29:45.677Z,80.87
2018-05-18T01:32:13.116Z,86.73
2018-05-18T01:34:40.674Z,97.97
2018-05-18T01:37:08.223Z,87.60
2018-05-18T01:39:35.526Z,86.10
2018-05-18T01:42:02.926Z,87.23
2018-05-18T01:44:30.290Z,95.00
2018-05-18T01:46:57.593Z,86.17
2018-05-18T01:49:24.901Z,106.40
2018-05-18T01:51:52.216Z,93.17
2018-05-18T01:54:19.545Z,113.40
2018-05-18T01:56:46.918Z,107.73
2018-05-18T01:59:14.266Z,101.90
2018-05-18T02:01:41.656Z,111.47
2018-05-18T02:04:09.045Z,116.03
2018-05-18T02:06:37.291Z,108.80
2018-05-18T02:09:05.477Z,103.70
2018-05-18T02:11:32.843Z,100.93
2018-05-18T02:14:00.198Z,107.63
2018-05-18T02:16:27.569Z,104.20
2018-05-18T02:18:54.931Z,101.30
2018-05-18T02:21:22.234Z,105.33
2018-05-18T02:23:49.607Z,113.27
2018-05-18T02:26:16.936Z,121.90
2018-05-18T02:28:44.294Z,98.43
2018-05-18T02:31:11.766Z,104.50
2018-05-18T02:33:39.211Z,117.37
2018-05-18T02:36:06.619Z,89.43
2018-05-18T02:38:33.981Z,97.90
2018-05-18T02:41:01.279Z,103.47
2018-05-18T02:43:28.735Z,96.70
2018-05-18T02:45:56.018Z,106.47
2018-05-18T02:48:23.338Z,101.63
2018-05-18T02:50:50.641Z,109.73
2018-05-18T02:53:18.012Z,117.10
2018-05-18T02:55:45.315Z,96.40
2018-05-18T02:58:12.684Z,98.20
2018-05-18T03:00:40.233Z,102.60
2018-05-18T03:03:08.413Z,99.40
2018-05-18T03:05:35.838Z,104.43
2018-05-18T03:08:03.218Z,93.50
2018-05-18T03:10:30.649Z,85.00
2018-05-18T03:12:58.151Z,87.17
2018-05-18T03:15:25.456Z,97.50
2018-05-18T03:17:52.748Z,93.73
2018-05-18T03:20:20.062Z,90.87
2018-05-18T03:22:47.341Z,101.43
2018-05-18T03:25:14.805Z,91.40
2018-05-18T03:27:42.147Z,85.57
2018-05-18T03:30:10.346Z,90.63
2018-05-18T03:32:37.750Z,86.20
2018-05-18T03:35:05.087Z,80.93
2018-05-18T03:37:32.532Z,94.37
2018-05-18T03:39:59.884Z,83.70
2018-05-18T03:42:27.334Z,98.60
2018-05-18T03:44:54.626Z,91.50
2018-05-18T03:47:21.911Z,86.00
2018-05-18T03:49:49.207Z,97.63
2018-05-18T03:55:01.722Z,92.10
2018-05-18T03:57:29.132Z,90.03
2018-05-18T03:59:56.449Z,79.87
2018-05-18T04:02:29.787Z,93.97
2018-05-18T04:07:47.370Z,91.00
2018-05-18T04:10:14.955Z,90.70
2018-05-18T04:12:42.248Z,92.20
2018-05-18T04:15:09.981Z,93.83
2018-05-18T04:17:37.496Z,93.97
2018-05-18T04:20:04.902Z,85.50
2018-05-18T04:22:32.229Z,91.67
2018-05-18T04:24:59.686Z,91.50
2018-05-18T04:27:26.978Z,94.13
2018-05-18T04:29:54.270Z,96.20
2018-05-18T04:32:21.595Z,93.23
2018-05-18T04:34:48.917Z,89.60
2018-05-18T04:37:16.330Z,92.77
2018-05-18T04:39:44.039Z,88.97
2018-05-18T04:42:11.493Z,87.30
2018-05-18T04:44:38.823Z,97.87
2018-05-18T04:47:06.317Z,86.13
2018-05-18T04:49:33.771Z,86.80
2018-05-18T04:52:01.359Z,87.13
2018-05-18T04:54:28.746Z,78.47
2018-05-18T04:56:56.786Z,97.67
2018-05-18T04:59:24.123Z,96.07
2018-05-18T05:01:51.409Z,88.27
2018-05-18T05:04:18.726Z,90.63
2018-05-18T05:06:46.441Z,77.10
2018-05-18T05:09:13.783Z,93.23
2018-05-18T05:11:41.133Z,92.90
2018-05-18T05:14:08.746Z,75.23
2018-05-18T05:16:36.792Z,105.27
2018-05-18T05:19:04.142Z,95.73
2018-05-18T05:21:33.241Z,91.00
2018-05-18T05:24:00.761Z,99.73
2018-05-18T05:29:00.004Z,117.63
2018-05-18T05:31:27.404Z,94.50
2018-05-18T05:33:54.712Z,86.70
2018-05-18T05:36:22.036Z,80.93
2018-05-18T05:38:49.344Z,94.90
2018-05-18T05:41:16.783Z,79.53
2018-05-18T05:43:44.156Z,99.33
2018-05-18T05:46:11.695Z,100.97
2018-05-18T05:48:39.212Z,96.03
2018-05-18T05:53:39.839Z,88.53
2018-05-18T05:56:07.384Z,85.30
2018-05-18T05:58:34.753Z,79.23
2018-05-18T06:01:02.091Z,80.57
2018-05-18T06:03:29.480Z,77.63
2018-05-18T06:08:31.062Z,79.27
2018-05-18T06:10:58.504Z,82.77
2018-05-18T06:13:26.442Z,65.90
2018-05-18T06:15:54.016Z,75.53
2018-05-18T06:18:22.442Z,79.23
2018-05-18T06:20:49.893Z,76.93
2018-05-18T06:25:51.515Z,81.27
2018-05-18T06:28:25.914Z,75.80
2018-05-18T06:30:59.683Z,80.00
2018-05-18T06:33:27.123Z,94.73
2018-05-18T06:35:54.431Z,79.23
2018-05-18T06:38:21.789Z,83.60
2018-05-18T06:40:51.183Z,89.97
2018-05-18T06:43:18.620Z,83.70
2018-05-18T06:45:46.027Z,75.03
2018-05-18T06:48:13.679Z,84.03
2018-05-18T06:53:16.974Z,77.87
2018-05-18T06:58:16.759Z,85.13
2018-05-18T07:00:44.473Z,81.30
2018-05-18T07:05:43.847Z,61.23
2018-05-18T07:08:15.455Z,57.60
2018-05-18T07:10:43.023Z,76.57
2018-05-18T07:13:11.068Z,69.37
2018-05-18T07:15:41.102Z,78.00
2018-05-18T07:18:08.695Z,73.83
2018-05-18T07:20:37.818Z,63.20
2018-05-18T07:28:11.177Z,79.47
2018-05-18T07:30:38.953Z,57.77
2018-05-18T07:33:06.581Z,73.93
2018-05-18T07:35:34.045Z,65.53
2018-05-18T07:43:08.059Z,70.53
2018-05-18T07:45:37.265Z,72.40
2018-05-18T07:48:04.721Z,63.47
2018-05-18T07:50:32.126Z,60.27
2018-05-18T07:55:36.718Z,59.73
2018-05-18T07:58:08.039Z,66.23
2018-05-18T08:00:35.495Z,68.47
2018-05-18T08:03:03.208Z,58.40
2018-05-18T08:08:03.564Z,58.93
2018-05-18T08:10:31.324Z,55.00
2018-05-18T08:15:35.139Z,50.10
2018-05-18T08:18:02.879Z,49.20
2018-05-18T08:20:30.234Z,40.90
2018-05-18T08:22:57.532Z,38.67
2018-05-18T08:27:56.449Z,42.43
2018-05-18T08:33:01.100Z,40.00
2018-05-18T08:35:28.509Z,37.53
2018-05-18T08:40:29.811Z,50.73
2018-05-18T08:42:57.166Z,46.97
2018-05-18T08:47:56.087Z,49.73
2018-05-18T08:50:23.400Z,36.93
2018-05-18T08:52:50.707Z,47.33
2018-05-18T08:57:56.862Z,45.77
2018-05-18T09:00:33.519Z,40.30
2018-05-18T09:08:05.825Z,45.20
2018-05-18T09:10:35.011Z,33.63
2018-05-18T09:13:02.362Z,48.07
2018-05-18T09:15:29.756Z,35.00
2018-05-18T09:20:31.116Z,44.73
2018-05-18T09:28:49.877Z,40.27
2018-05-18T09:31:18.893Z,33.60
2018-05-18T09:33:47.240Z,31.73
2018-05-18T09:36:16.167Z,39.50
2018-05-18T09:46:23.062Z,38.10
2018-05-18T09:48:52.255Z,33.47
2018-05-18T09:51:35.311Z,35.77
2018-05-18T09:56:35.326Z,33.20
2018-05-18T10:01:37.426Z,49.70
2018-05-18T10:06:38.135Z,34.03
2018-05-18T10:09:05.583Z,31.63
2018-05-18T10:11:33.997Z,21.73
2018-05-18T10:14:01.179Z,24.87
2018-05-18T10:16:28.651Z,28.00
2018-05-18T10:23:59.558Z,29.13
2018-05-18T10:29:00.591Z,37.63
2018-05-18T10:31:28.186Z,29.77
2018-05-18T10:33:55.617Z,23.53
2018-05-18T10:38:54.636Z,24.83
2018-05-18T10:43:53.804Z,27.37
2018-05-18T10:46:21.215Z,30.43
2018-05-18T10:48:49.413Z,27.37
2018-05-18T10:53:49.035Z,32.93
2018-05-18T10:56:16.523Z,21.63
2018-05-18T10:58:45.764Z,21.10
2018-05-18T11:01:13.246Z,31.00
2018-05-18T11:06:13.641Z,18.87
2018-05-18T11:08:41.251Z,37.30
2018-05-18T11:11:10.057Z,30.57
2018-05-18T11:13:37.881Z,24.00
2018-05-18T11:16:07.273Z,34.40
2018-05-18T11:21:21.478Z,29.17
2018-05-18T11:23:48.883Z,25.30
2018-05-18T11:26:16.532Z,30.43
2018-05-18T11:28:44.147Z,36.50
2018-05-18T11:31:11.959Z,21.77
2018-05-18T11:36:11.746Z,36.27
2018-05-18T11:38:39.284Z,26.87
2018-05-18T11:41:07.758Z,24.73
2018-05-18T11:43:35.198Z,28.20
2018-05-18T11:46:02.606Z,30.10
2018-05-18T11:48:30.194Z,36.57
2018-05-18T11:50:57.682Z,27.27
2018-05-18T11:53:25.089Z,33.50
2018-05-18T11:55:52.788Z,36.87
2018-05-18T11:58:20.132Z,27.77
2018-05-18T12:00:47.482Z,22.83
2018-05-18T12:05:46.696Z,21.63
2018-05-18T12:08:14.133Z,25.60
2018-05-18T12:10:42.588Z,22.97
2018-05-18T12:13:15.661Z,25.43
2018-05-18T12:18:15.185Z,14.47
2018-05-18T12:20:43.054Z,24.10
2018-05-18T12:25:42.384Z,26.13
2018-05-18T12:28:10.008Z,20.83
2018-05-18T12:30:38.056Z,21.80
2018-05-18T12:33:05.821Z,26.93
2018-05-18T12:35:33.273Z,29.53
2018-05-18T12:38:01.468Z,29.63
2018-05-18T12:40:29.012Z,23.07
2018-05-18T12:42:56.445Z,34.07
2018-05-18T12:47:56.163Z,19.10
2018-05-18T12:50:24.800Z,24.47
2018-05-18T12:52:52.107Z,21.07
2018-05-18T12:55:19.513Z,26.57
2018-05-18T12:57:47.029Z,37.77
2018-05-18T13:05:50.559Z,26.03
2018-05-18T13:11:01.799Z,24.20
2018-05-18T13:16:03.865Z,29.47
2018-05-18T13:18:31.872Z,25.30
2018-05-18T13:20:59.628Z,19.90
2018-05-18T13:34:28.871Z,18.80
2018-05-18T13:36:56.781Z,22.47
2018-05-18T13:42:10.058Z,18.70
2018-05-18T13:48:15.062Z,20.83
2018-05-18T13:58:58.279Z,13.87
2018-05-18T14:01:29.175Z,17.93
2018-05-18T14:06:34.627Z,14.47
2018-05-18T14:14:08.288Z,20.50
2018-05-18T14:21:59.143Z,21.37
2018-05-18T14:29:33.061Z,18.30
2018-05-18T14:32:00.586Z,25.43
2018-05-18T14:34:28.451Z,19.60
2018-05-18T14:36:56.922Z,25.97
2018-05-18T14:47:13.504Z,23.97
2018-05-18T14:49:42.759Z,20.40
2018-05-18T14:52:11.813Z,26.87
2018-05-18T14:57:12.737Z,11.03
2018-05-18T14:59:41.311Z,16.33
2018-05-18T15:02:08.977Z,32.60
2018-05-18T15:04:37.288Z,14.40
2018-05-18T15:07:08.233Z,16.83
2018-05-18T15:12:29.047Z,18.27
2018-05-18T15:24:01.190Z,15.40
2018-05-18T15:26:29.154Z,22.40
2018-05-18T15:42:24.358Z,18.97
2018-05-18T15:50:10.110Z,24.70
2018-05-18T15:52:37.844Z,18.80
2018-05-18T15:55:05.443Z,13.63
2018-05-18T16:00:04.772Z,27.03
2018-05-18T16:02:32.304Z,18.57
2018-05-18T16:07:39.782Z,14.90
2018-05-18T16:12:44.075Z,15.93
2018-05-18T16:26:07.357Z,27.27
2018-05-18T16:28:36.839Z,14.73
2018-05-18T16:31:07.723Z,15.00
2018-05-18T16:33:35.208Z,17.87
2018-05-18T16:38:35.665Z,17.33
2018-05-18T16:43:35.681Z,22.30
2018-05-18T16:46:09.518Z,16.33
2018-05-18T16:48:37.219Z,25.20
2018-05-18T16:51:04.611Z,16.40
2018-05-18T16:53:32.291Z,22.33
2018-05-18T16:59:02.479Z,16.27
2018-05-18T17:01:30.053Z,16.27
2018-05-18T17:03:57.588Z,22.53
2018-05-18T17:09:09.464Z,16.50
2018-05-18T17:14:10.356Z,21.40
2018-05-18T17:25:06.919Z,18.60
2018-05-18T17:30:45.336Z,19.80
2018-05-18T17:33:14.856Z,27.27
2018-05-18T17:38:40.556Z,16.17
2018-05-18T17:57:23.280Z,15.90
2018-05-18T18:04:55.675Z,15.47
2018-05-18T18:07:23.352Z,14.83
2018-05-18T18:12:26.430Z,20.60
2018-05-18T18:14:53.865Z,8.63
2018-05-18T18:17:21.483Z,19.83
2018-05-18T18:22:20.879Z,15.90
2018-05-18T18:24:48.207Z,17.50
2018-05-18T18:27:16.639Z,18.13
2018-05-18T18:29:44.188Z,13.23
2018-05-18T18:34:43.846Z,19.40
2018-05-18T18:37:11.496Z,16.03
2018-05-18T18:39:40.342Z,23.07
2018-05-18T18:44:44.059Z,17.23
2018-05-18T18:49:43.882Z,15.30
2018-05-18T18:54:44.327Z,16.00
2018-05-18T18:59:48.756Z,19.30
2018-05-18T19:04:54.347Z,23.70
2018-05-18T19:15:17.417Z,19.73
2018-05-18T19:17:44.867Z,31.97
2018-05-18T19:22:52.510Z,23.27
2018-05-18T19:36:41.062Z,22.73
2018-05-18T19:39:10.582Z,21.53
2018-05-18T19:44:17.859Z,17.77
2018-05-18T19:46:47.245Z,31.63
2018-05-18T19:51:50.258Z,30.47
2018-05-18T19:54:18.530Z,27.70
2018-05-18T19:56:45.920Z,25.17
2018-05-18T19:59:13.490Z,29.83
2018-05-18T20:04:13.006Z,29.90
2018-05-18T20:09:12.252Z,28.20
2018-05-18T20:19:52.035Z,25.33
2018-05-18T20:22:26.160Z,41.50
2018-05-18T20:24:54.098Z,34.60
2018-05-18T20:29:53.962Z,20.27
2018-05-18T20:34:53.356Z,26.23
2018-05-18T20:37:24.147Z,30.13
2018-05-18T20:39:51.607Z,26.37
2018-05-18T20:42:19.017Z,40.97
2018-05-18T20:47:29.244Z,27.93
2018-05-18T20:57:33.793Z,30.67
2018-05-18T21:02:33.362Z,27.00
2018-05-18T21:07:37.829Z,23.03
2018-05-18T21:12:39.135Z,39.77
2018-05-18T21:17:38.274Z,21.47
2018-05-18T21:20:05.630Z,38.50
2018-05-18T21:22:33.033Z,29.30
2018-05-18T21:25:00.587Z,28.93
2018-05-18T21:27:28.009Z,27.90
2018-05-18T21:32:28.666Z,25.17
2018-05-18T21:40:03.604Z,41.60
2018-05-18T21:50:37.559Z,29.27
2018-05-18T22:00:48.131Z,29.40
2018-05-18T22:05:52.585Z,28.07
2018-05-18T22:08:19.943Z,39.33
2018-05-18T22:10:47.559Z,32.90
2018-05-18T22:15:47.299Z,42.07
2018-05-18T22:18:14.653Z,34.37
2018-05-18T22:23:14.847Z,34.90
2018-05-18T22:25:42.243Z,30.20
2018-05-18T22:28:09.766Z,32.90
2018-05-18T22:30:37.636Z,30.83
2018-05-18T22:33:05.207Z,26.23
2018-05-18T22:35:32.694Z,27.03
2018-05-18T22:43:14.569Z,22.20
2018-05-18T22:45:42.005Z,32.27
2018-05-18T22:50:46.429Z,28.57
2018-05-18T22:53:14.435Z,28.30
2018-05-18T22:55:41.798Z,38.87
2018-05-18T23:00:41.239Z,24.23
2018-05-18T23:03:08.773Z,28.70
2018-05-18T23:05:37.399Z,37.50
2018-05-18T23:10:39.977Z,21.73
2018-05-18T23:15:41.697Z,30.13
2018-05-18T23:18:09.145Z,28.77
2018-05-18T23:20:37.023Z,40.90
2018-05-18T23:23:05.350Z,26.33
2018-05-18T23:25:33.634Z,26.63
2018-05-18T23:30:33.137Z,31.27
2018-05-18T23:33:00.877Z,21.47
2018-05-18T23:35:28.312Z,26.90
2018-05-18T23:37:57.628Z,27.17
2018-05-18T23:40:25.846Z,22.37
2018-05-18T23:42:53.202Z,44.17
2018-05-18T23:45:20.567Z,30.53
2018-05-18T23:47:47.962Z,27.83
2018-05-18T23:52:53.802Z,22.40
2018-05-18T23:55:21.314Z,32.50
2018-05-18T23:57:49.594Z,26.47
